Time;durP1;ratioP1;P1;durP2;ratioP2;P2;SDS_P1;SDS_P2;PMS_P1;PMS_P2;Temp;Humidity;BMP_temperature;BMP_pressure;BME280_temperature;BME280_humidity;BME280_pressure;Samples;Min_cycle;Max_cycle;Signal;HPM_P1;HPM_P2
2023/06/10 00:01:19;;;;;;;5.32;4.10;;;17.10;99.90;;;15.38;100.00;99641.91;10353569;28;97428;-93
2023/06/10 00:06:24;;;;;;;4.68;4.10;;;16.90;99.90;;;15.25;100.00;99641.97;10354163;28;96489;-93
2023/06/10 00:11:27;;;;;;;6.70;4.25;;;16.80;99.90;;;15.15;100.00;99642.38;10386847;28;97479;-92
2023/06/10 00:16:30;;;;;;;6.07;3.95;;;16.60;99.90;;;15.11;100.00;99641.16;10352394;28;96454;-92
2023/06/10 00:21:39;;;;;;;4.72;4.22;;;16.50;99.90;;;15.08;100.00;99635.41;10378684;28;96496;-93
2023/06/10 00:26:43;;;;;;;8.93;4.60;;;16.50;99.90;;;15.11;100.00;99637.66;10400116;28;96546;-92
2023/06/10 00:31:46;;;;;;;6.15;3.85;;;16.50;99.90;;;15.11;100.00;99638.47;10363682;28;96592;-93
2023/06/10 00:36:50;;;;;;;6.32;4.45;;;16.50;99.90;;;15.05;100.00;99628.63;10374590;28;97810;-92
2023/06/10 00:41:53;;;;;;;8.13;4.95;;;16.50;99.90;;;15.02;100.00;99629.06;10388652;28;96675;-93
2023/06/10 00:46:56;;;;;;;27.52;5.60;;;16.50;99.90;;;15.03;100.00;99646.75;10361046;28;96961;-93
2023/06/10 00:52:00;;;;;;;12.52;5.90;;;16.50;99.90;;;15.06;100.00;99646.34;10369303;28;98536;-91
2023/06/10 00:57:04;;;;;;;6.20;4.20;;;16.50;99.90;;;15.08;100.00;99648.81;10387755;28;96638;-92
2023/06/10 01:02:07;;;;;;;9.88;4.68;;;16.50;99.90;;;15.01;100.00;99639.97;10377382;28;96633;-93
2023/06/10 01:07:37;;;;;;;6.05;4.57;;;16.50;99.90;;;15.01;100.00;99648.81;10362692;28;96640;-93
2023/06/10 01:13:02;;;;;;;5.53;4.03;;;16.50;99.90;;;14.97;100.00;99647.59;10371426;28;96575;-92
2023/06/10 01:18:09;;;;;;;32.85;5.47;;;16.40;99.90;;;14.97;100.00;99647.59;10379712;28;98240;-93
2023/06/10 01:23:13;;;;;;;37.28;5.38;;;16.40;99.90;;;14.92;100.00;99639.38;10382393;27;96586;-93
2023/06/10 01:28:28;;;;;;;8.82;4.30;;;16.40;99.90;;;14.95;100.00;99641.63;10370105;28;97155;-93
2023/06/10 01:33:39;;;;;;;37.53;7.15;;;16.50;99.90;;;14.95;100.00;99642.47;10370417;28;98306;-92
2023/06/10 01:38:47;;;;;;;23.40;5.03;;;16.50;99.90;;;14.96;100.00;99641.41;10354243;28;96599;-92
2023/06/10 01:43:50;;;;;;;5.43;3.90;;;16.50;99.90;;;14.96;100.00;99633.41;10372677;28;96614;-93
2023/06/10 01:48:53;;;;;;;8.38;4.65;;;16.50;99.90;;;14.95;100.00;99634.44;10354387;28;97158;-93
2023/06/10 01:53:56;;;;;;;10.55;5.15;;;16.50;99.90;;;14.88;100.00;99625.59;10352864;28;96672;-94
2023/06/10 01:58:59;;;;;;;37.47;6.68;;;16.40;99.90;;;14.93;100.00;99641.00;10365567;28;96864;-92
2023/06/10 02:04:02;;;;;;;15.02;5.38;;;16.40;99.90;;;14.87;100.00;99641.84;10344238;28;96815;-92
2023/06/10 02:09:06;;;;;;;12.55;5.50;;;16.40;99.90;;;14.82;100.00;99633.66;10346382;28;96573;-92
2023/06/10 02:14:09;;;;;;;8.18;5.35;;;16.40;99.90;;;14.78;100.00;99637.75;10352731;28;96573;-92
2023/06/10 02:19:12;;;;;;;15.55;5.40;;;16.30;99.90;;;14.80;100.00;99636.50;10386500;28;96696;-92
2023/06/10 02:24:15;;;;;;;12.43;6.20;;;16.30;99.90;;;14.81;100.00;99640.81;10359186;28;96624;-93
2023/06/10 02:29:18;;;;;;;13.07;6.88;;;16.30;99.90;;;14.81;100.00;99637.31;10357179;28;96781;-93
2023/06/10 02:34:21;;;;;;;9.45;6.38;;;16.30;99.90;;;14.82;100.00;99642.50;10353963;28;96495;-94
2023/06/10 02:39:24;;;;;;;6.78;4.82;;;16.40;99.90;;;14.84;100.00;99642.28;10346623;28;97111;-93
2023/06/10 02:44:27;;;;;;;8.23;5.53;;;16.40;99.90;;;14.80;100.00;99639.19;10363717;28;96531;-93
2023/06/10 02:49:30;;;;;;;7.70;4.18;;;16.40;99.90;;;14.76;100.00;99645.19;10370594;28;97974;-93
2023/06/10 02:54:33;;;;;;;6.80;2.92;;;16.30;99.90;;;14.68;100.00;99643.53;10359831;28;96579;-94
2023/06/10 02:59:36;;;;;;;7.63;5.18;;;16.20;99.90;;;14.68;100.00;99648.88;10365095;28;96569;-93
2023/06/10 03:04:38;;;;;;;6.00;4.65;;;16.20;99.90;;;14.71;100.00;99651.97;10387626;28;96579;-93
2023/06/10 03:09:41;;;;;;;8.93;5.00;;;16.20;99.90;;;14.75;100.00;99659.56;10367278;28;96672;-94
2023/06/10 03:14:47;;;;;;;6.72;4.93;;;16.30;99.90;;;14.76;100.00;99651.34;10367176;28;97024;-94
2023/06/10 03:19:50;;;;;;;8.02;6.32;;;16.30;99.90;;;14.76;100.00;99655.88;10365599;28;97895;-93
2023/06/10 03:24:54;;;;;;;12.65;9.75;;;16.30;99.90;;;14.81;100.00;99664.06;10351812;28;96478;-94
2023/06/10 03:29:58;;;;;;;10.00;6.32;;;16.30;99.90;;;14.78;100.00;99659.97;10377446;28;98096;-95
2023/06/10 03:35:01;;;;;;;10.02;6.47;;;16.30;99.90;;;14.87;100.00;99673.94;10404563;28;96787;-93
2023/06/10 03:40:05;;;;;;;21.30;7.05;;;16.40;99.90;;;14.87;100.00;99671.25;10372054;28;97261;-93
2023/06/10 03:45:09;;;;;;;7.13;5.57;;;16.40;99.90;;;14.89;100.00;99666.56;10352866;28;98230;-95
2023/06/10 03:50:13;;;;;;;8.23;6.18;;;16.40;99.90;;;14.91;100.00;99654.59;10382166;28;96548;-93
2023/06/10 03:55:17;;;;;;;8.10;5.30;;;16.50;99.90;;;14.97;100.00;99664.47;10385488;28;98852;-94
2023/06/10 04:00:21;;;;;;;18.13;5.15;;;16.50;99.90;;;15.02;100.00;99671.03;10387710;28;97162;-94
2023/06/10 04:05:24;;;;;;;9.95;6.22;;;16.50;99.90;;;15.09;100.00;99664.63;10394466;28;97359;-93
2023/06/10 04:10:27;;;;;;;6.88;5.15;;;16.60;99.90;;;15.13;100.00;99670.41;10387888;28;98723;-95
2023/06/10 04:15:33;;;;;;;31.15;7.15;;;16.70;99.90;;;15.11;100.00;99659.06;10388260;28;98576;-95
2023/06/10 04:20:36;;;;;;;6.63;5.13;;;16.70;99.90;;;15.11;100.00;99662.56;10396036;28;96593;-95
2023/06/10 04:25:39;;;;;;;8.70;5.13;;;16.70;99.90;;;15.13;100.00;99663.19;10387753;28;96680;-95
2023/06/10 04:30:42;;;;;;;6.35;5.10;;;16.70;99.90;;;15.08;100.00;99660.31;10361981;28;97392;-96
2023/06/10 04:35:47;;;;;;;13.05;6.22;;;16.60;99.90;;;15.02;100.00;99668.38;10367063;28;96518;-96
2023/06/10 04:40:50;;;;;;;7.85;6.47;;;16.60;99.90;;;15.01;100.00;99675.56;10362535;28;96432;-96
2023/06/10 04:45:53;;;;;;;9.80;5.75;;;16.50;99.90;;;15.00;100.00;99668.59;10386452;28;96568;-95
2023/06/10 04:50:56;;;;;;;12.00;6.88;;;16.50;99.90;;;14.99;100.00;99670.44;10358691;28;96727;-95
2023/06/10 04:56:00;;;;;;;8.68;7.47;;;16.50;99.90;;;15.03;100.00;99664.66;10349831;28;98635;-94
2023/06/10 05:01:03;;;;;;;10.05;7.65;;;16.50;99.90;;;15.04;100.00;99660.94;10375338;28;96487;-96
2023/06/10 05:06:06;;;;;;;22.05;8.13;;;16.60;99.90;;;15.02;100.00;99639.75;10377424;28;96963;-95
2023/06/10 05:11:09;;;;;;;13.45;8.90;;;16.60;99.90;;;15.23;100.00;99657.38;10371830;28;98780;-94
2023/06/10 05:16:14;;;;;;;17.77;9.02;;;16.70;99.90;;;15.33;100.00;99654.28;10365157;28;97545;-91
2023/06/10 05:21:18;;;;;;;12.88;8.25;;;16.80;99.90;;;15.47;100.00;99661.19;10365325;28;98278;-92
2023/06/10 05:26:20;;;;;;;10.88;6.30;;;16.90;99.90;;;15.64;100.00;99659.72;10360036;28;97988;-92
2023/06/10 05:31:24;;;;;;;6.50;5.53;;;17.10;99.90;;;15.86;100.00;99662.91;10354092;28;96433;-92
2023/06/10 05:36:27;;;;;;;5.03;4.50;;;17.30;99.90;;;16.15;100.00;99666.03;10353859;28;97509;-91
2023/06/10 05:41:30;;;;;;;5.35;4.28;;;17.60;99.90;;;16.37;100.00;99667.28;10356527;28;96528;-92
2023/06/10 05:46:34;;;;;;;6.10;4.40;;;17.90;99.90;;;16.60;100.00;99669.38;10354504;28;96482;-92
2023/06/10 05:51:38;;;;;;;9.20;6.25;;;18.10;99.90;;;16.81;100.00;99676.25;10336355;28;96687;-93
2023/06/10 05:56:41;;;;;;;13.32;6.05;;;18.30;99.90;;;16.91;100.00;99673.03;10374513;28;96462;-92
2023/06/10 06:01:44;;;;;;;7.75;5.45;;;18.40;99.90;;;17.04;100.00;99680.97;10391136;28;96486;-92
2023/06/10 06:06:47;;;;;;;29.10;6.45;;;18.50;99.90;;;17.09;100.00;99673.91;10351839;28;96629;-92
2023/06/10 06:11:50;;;;;;;26.60;6.45;;;18.60;99.90;;;17.11;100.00;99671.78;10335743;28;96591;-92
2023/06/10 06:16:53;;;;;;;8.60;5.70;;;18.60;99.90;;;17.15;100.00;99666.78;10351658;28;96450;-91
2023/06/10 06:21:55;;;;;;;61.88;9.05;;;18.70;99.90;;;17.22;100.00;99670.25;10366262;28;97046;-91
2023/06/10 06:26:59;;;;;;;8.40;5.07;;;18.70;99.90;;;17.36;100.00;99671.72;10378474;28;96690;-91
2023/06/10 06:32:02;;;;;;;7.05;5.47;;;18.80;99.90;;;17.42;100.00;99674.56;10387320;28;96489;-92
2023/06/10 06:37:05;;;;;;;5.35;4.50;;;18.90;99.90;;;17.57;100.00;99674.97;10386841;28;98512;-92
2023/06/10 06:42:08;;;;;;;12.10;4.80;;;19.00;99.90;;;17.74;100.00;99678.69;10370193;28;98450;-91
2023/06/10 06:47:11;;;;;;;8.13;4.65;;;19.20;99.90;;;17.94;100.00;99675.75;10402956;28;96629;-92
2023/06/10 06:52:15;;;;;;;44.75;6.13;;;19.40;99.90;;;18.07;100.00;99678.25;10350599;28;96487;-92
2023/06/10 06:57:18;;;;;;;4.70;4.20;;;19.60;99.90;;;18.19;100.00;99683.66;10335692;28;96558;-93
2023/06/10 07:02:21;;;;;;;43.80;6.22;;;19.70;99.90;;;18.28;100.00;99687.66;10352639;28;96458;-92
2023/06/10 07:07:24;;;;;;;14.30;4.57;;;19.80;99.90;;;18.29;100.00;99681.25;10361872;28;97722;-93
2023/06/10 07:12:27;;;;;;;12.98;4.60;;;19.80;99.90;;;18.38;100.00;99679.84;10357568;28;98646;-92
2023/06/10 07:17:31;;;;;;;18.85;5.15;;;19.90;99.90;;;18.41;100.00;99684.78;10353584;28;97209;-92
2023/06/10 07:22:34;;;;;;;6.30;4.40;;;20.00;99.90;;;18.50;100.00;99685.25;10357461;28;96535;-93
2023/06/10 07:27:37;;;;;;;12.90;5.70;;;20.00;99.90;;;18.48;100.00;99684.66;10381574;28;97679;-94
2023/06/10 07:32:40;;;;;;;14.13;4.38;;;20.00;99.90;;;18.50;100.00;99685.25;10375807;28;98406;-90
2023/06/10 07:37:43;;;;;;;9.18;5.10;;;20.00;99.90;;;18.58;100.00;99701.03;10363099;28;96591;-93
2023/06/10 07:42:47;;;;;;;12.18;4.07;;;20.10;99.90;;;18.69;100.00;99692.19;10341462;28;98564;-91
2023/06/10 07:47:50;;;;;;;5.43;4.85;;;20.20;99.90;;;18.82;100.00;99687.63;10366492;28;97293;-91
2023/06/10 07:52:53;;;;;;;9.45;4.22;;;20.30;99.90;;;18.94;100.00;99691.13;10365664;28;96587;-90
2023/06/10 07:57:56;;;;;;;23.80;5.03;;;20.50;99.90;;;19.08;100.00;99706.03;10373779;28;96889;-93
2023/06/10 08:02:59;;;;;;;6.50;4.43;;;20.60;99.90;;;19.22;100.00;99695.81;10365154;28;97600;-91
2023/06/10 08:08:03;;;;;;;24.08;4.57;;;20.80;99.90;;;19.30;100.00;99700.00;10360921;28;96746;-92
2023/06/10 08:13:06;;;;;;;6.85;3.97;;;20.90;99.90;;;19.38;100.00;99684.31;10366803;28;98013;-93
2023/06/10 08:18:09;;;;;;;3.55;3.25;;;21.00;99.90;;;19.43;100.00;99689.81;10391849;28;97371;-92
2023/06/10 08:23:12;;;;;;;10.23;3.80;;;21.00;99.90;;;19.59;100.00;99692.81;10376692;28;97398;-93
2023/06/10 08:28:15;;;;;;;3.70;3.10;;;21.20;99.90;;;19.79;100.00;99685.13;10371299;28;97407;-94
2023/06/10 08:33:18;;;;;;;5.32;3.47;;;21.40;99.90;;;19.92;100.00;99673.25;10370777;28;97091;-93
2023/06/10 08:38:22;;;;;;;5.05;3.55;;;21.50;99.90;;;20.10;100.00;99666.84;10380069;28;96645;-93
2023/06/10 08:43:38;;;;;;;7.40;3.75;;;21.70;99.90;;;20.32;100.00;99670.44;10365067;28;97398;-93
2023/06/10 08:48:52;;;;;;;4.15;3.70;;;21.90;99.90;;;20.39;100.00;99665.72;10387946;28;96493;-93
2023/06/10 08:54:25;;;;;;;6.60;3.65;;;22.00;99.90;;;20.44;100.00;99668.47;10322420;28;96509;-94
2023/06/10 08:59:29;;;;;;;6.22;3.83;;;22.00;99.90;;;20.47;100.00;99657.25;10354708;28;97971;-92
2023/06/10 09:04:33;;;;;;;8.48;3.95;;;22.00;99.90;;;20.58;100.00;99656.34;10332733;28;96534;-92
2023/06/10 09:09:36;;;;;;;4.55;3.58;;;22.20;99.90;;;20.61;100.00;99649.63;10359631;28;96539;-93
2023/06/10 09:14:40;;;;;;;4.88;4.05;;;22.20;99.90;;;20.71;100.00;99647.06;10348574;28;97408;-90
2023/06/10 09:19:45;;;;;;;5.35;4.20;;;22.30;99.90;;;20.85;100.00;99636.72;10362950;28;98542;-92
2023/06/10 09:24:48;;;;;;;4.18;3.78;;;22.40;99.90;;;21.07;100.00;99640.28;10338223;28;96718;-94
2023/06/10 09:29:54;;;;;;;5.15;4.28;;;22.70;99.90;;;21.25;100.00;99641.06;10338403;28;96532;-92
2023/06/10 09:34:58;;;;;;;6.38;3.78;;;22.80;99.90;;;21.30;100.00;99633.88;10333108;28;96752;-91
2023/06/10 09:40:10;;;;;;;4.20;3.80;;;22.90;99.90;;;21.26;100.00;99631.88;10333884;28;96648;-92
2023/06/10 09:45:13;;;;;;;5.05;3.65;;;22.90;99.90;;;21.41;100.00;99633.97;10335854;28;97396;-91
2023/06/10 09:50:16;;;;;;;5.15;3.25;;;23.00;99.90;;;21.65;98.38;99632.63;10326103;28;96635;-93
2023/06/10 09:55:19;;;;;;;5.25;2.63;;;23.20;99.90;;;21.70;88.67;99634.56;10332593;28;97722;-93
2023/06/10 10:00:23;;;;;;;5.82;3.17;;;23.40;99.90;;;21.62;96.33;99631.25;10327790;28;96925;-90
2023/06/10 10:05:27;;;;;;;5.30;3.33;;;23.30;99.90;;;21.54;98.62;99633.59;10338434;28;96641;-95
2023/06/10 10:10:30;;;;;;;3.28;2.95;;;23.20;99.90;;;21.60;100.00;99624.47;10345450;28;96634;-90
2023/06/10 10:15:36;;;;;;;5.05;3.05;;;23.20;99.90;;;21.61;95.98;99626.91;10339435;28;97147;-93
2023/06/10 10:20:49;;;;;;;3.30;2.97;;;23.30;99.90;;;21.59;91.41;99622.81;10321138;28;96872;-94
2023/06/10 10:25:55;;;;;;;5.72;3.28;;;23.30;99.90;;;21.57;89.27;99624.97;10353668;28;96579;-93
2023/06/10 10:31:06;;;;;;;4.28;2.53;;;23.20;99.90;;;21.63;90.16;99618.53;10340250;28;97675;-92
2023/06/10 10:36:10;;;;;;;5.22;2.70;;;23.30;99.90;;;21.72;93.50;99624.31;10349355;28;97644;-90
2023/06/10 10:41:14;;;;;;;6.50;3.03;;;23.30;99.90;;;21.77;87.15;99613.53;10339387;28;96642;-92
2023/06/10 10:46:17;;;;;;;2.70;2.33;;;23.40;99.90;;;21.82;91.74;99603.59;10336223;28;96651;-91
2023/06/10 10:51:22;;;;;;;5.97;2.80;;;23.50;99.90;;;21.88;84.35;99591.75;10376998;28;96684;-93
2023/06/10 10:56:30;;;;;;;3.40;2.28;;;23.60;99.90;;;22.12;91.35;99586.03;10367930;28;96673;-91
2023/06/10 11:01:46;;;;;;;3.90;2.60;;;23.70;99.90;;;22.31;83.22;99587.28;10373392;28;96631;-95
2023/06/10 11:06:53;;;;;;;4.18;2.70;;;23.90;99.90;;;22.48;89.30;99578.97;10381746;28;96634;-95
2023/06/10 11:12:01;;;;;;;5.20;2.58;;;24.10;99.90;;;22.73;84.58;99577.50;10398265;28;97783;-94
2023/06/10 11:17:20;;;;;;;2.40;1.93;;;24.30;99.90;;;22.98;90.98;99568.72;10399780;28;96593;-95
2023/06/10 11:22:23;;;;;;;12.88;2.70;;;24.60;99.90;;;23.21;86.24;99562.84;10387317;28;96566;-91
2023/06/10 11:27:37;;;;;;;11.25;2.60;;;24.80;99.90;;;23.37;75.64;99561.81;10349533;28;97104;-94
2023/06/10 11:32:42;;;;;;;7.93;2.55;;;25.10;99.90;;;23.27;74.36;99552.81;10379661;28;97298;-94
2023/06/10 11:37:47;;;;;;;8.15;2.40;;;25.00;99.90;;;23.18;75.70;99553.34;10382920;28;96599;-94
2023/06/10 11:42:51;;;;;;;3.63;1.90;;;24.90;99.90;;;23.23;77.25;99553.38;10372525;28;96687;-94
2023/06/10 11:47:59;;;;;;;7.95;2.38;;;24.90;99.90;;;23.20;75.76;99572.84;10374460;28;96539;-94
2023/06/10 11:53:03;;;;;;;10.40;2.90;;;24.90;99.90;;;22.90;79.00;99572.75;10382634;28;96823;-91
2023/06/10 11:58:21;;;;;;;4.80;2.30;;;24.70;99.90;;;22.50;88.09;99571.44;10389667;28;96478;-92
2023/06/10 12:03:28;;;;;;;2.28;2.08;;;24.30;99.90;;;22.22;92.26;99578.00;10393300;28;96624;-93
2023/06/10 12:08:32;;;;;;;4.22;2.60;;;23.90;99.90;;;21.97;94.02;99562.34;10379568;28;96689;-93
2023/06/10 12:13:48;;;;;;;23.13;3.28;;;23.70;99.90;;;21.85;94.24;99575.22;10350693;28;96539;-93
2023/06/10 12:19:00;;;;;;;7.18;2.75;;;23.50;99.90;;;21.66;95.76;99561.25;10359278;28;96725;-91
2023/06/10 12:24:11;;;;;;;4.85;2.90;;;23.30;99.90;;;21.46;100.00;99561.84;10361702;28;96569;-92
2023/06/10 12:29:20;;;;;;;3.45;2.45;;;23.10;99.90;;;21.33;100.00;99552.28;10381957;28;96579;-93
2023/06/10 12:34:40;;;;;;;3.83;2.47;;;22.90;99.90;;;21.25;100.00;99541.06;10360737;28;96471;-93
2023/06/10 12:39:56;;;;;;;3.45;2.50;;;22.80;99.90;;;21.21;100.00;99537.25;10359349;28;96748;-94
2023/06/10 12:45:01;;;;;;;2.65;2.10;;;22.70;99.90;;;21.31;100.00;99534.69;10359716;28;96554;-93
2023/06/10 12:50:05;;;;;;;4.15;2.10;;;22.80;99.90;;;21.36;96.85;99519.34;10405643;28;96622;-93
2023/06/10 12:55:08;;;;;;;2.03;1.70;;;22.90;99.90;;;21.45;88.91;99516.97;10388590;28;96739;-94
2023/06/10 13:00:13;;;;;;;12.15;2.08;;;23.00;99.90;;;21.81;95.15;99528.94;10349810;28;96536;-89
2023/06/10 13:05:17;;;;;;;2.25;1.90;;;23.30;99.90;;;22.41;91.22;99522.34;10385366;28;96792;-90
2023/06/10 13:10:22;;;;;;;4.47;2.03;;;24.10;99.90;;;22.74;88.21;99522.28;10369008;28;96652;-91
2023/06/10 13:15:28;;;;;;;2.30;1.92;;;24.50;99.90;;;22.89;79.53;99514.22;10346226;28;97078;-93
2023/06/10 13:20:31;;;;;;;5.57;2.10;;;24.60;99.90;;;23.15;80.43;99518.66;10357511;28;96804;-89
2023/06/10 13:25:34;;;;;;;3.50;1.50;;;24.90;99.90;;;23.61;81.96;99509.78;10402188;28;97720;-90
2023/06/10 13:30:37;;;;;;;5.43;1.80;;;25.40;99.90;;;23.95;77.27;99502.75;10367518;28;96735;-91
2023/06/10 13:35:41;;;;;;;8.88;1.77;;;25.80;99.90;;;24.10;66.07;99510.06;10353683;28;96515;-89
2023/06/10 13:40:44;;;;;;;8.23;2.80;;;25.90;99.90;;;24.08;71.56;99523.09;10361664;28;97641;-90
2023/06/10 13:45:47;;;;;;;14.48;3.03;;;25.90;99.90;;;23.68;76.70;99530.16;10369065;28;96483;-90
2023/06/10 13:50:50;;;;;;;53.30;5.05;;;25.50;99.90;;;23.19;83.05;99525.16;10388766;28;96641;-88
2023/06/10 13:55:53;;;;;;;47.65;4.82;;;25.00;99.90;;;22.79;86.46;99524.97;10344797;28;96854;-89
2023/06/10 14:00:58;;;;;;;6.68;2.60;;;24.40;99.90;;;22.43;91.82;99520.22;10363031;28;96681;-93
2023/06/10 14:06:02;;;;;;;3.08;2.67;;;24.10;99.90;;;22.17;96.22;99521.13;10379800;28;96526;-90
2023/06/10 14:11:05;;;;;;;36.67;5.40;;;23.70;99.90;;;21.99;97.26;99516.91;10356607;28;97359;-90
2023/06/10 14:16:08;;;;;;;12.93;2.53;;;23.50;99.90;;;21.89;94.09;99519.53;10402230;28;96521;-89
2023/06/10 14:21:25;;;;;;;4.90;2.10;;;23.50;99.90;;;21.79;90.53;99516.75;10362004;28;97046;-90
2023/06/10 14:26:28;;;;;;;11.48;2.30;;;23.40;99.90;;;21.73;91.47;99512.38;10387504;28;96987;-88
2023/06/10 14:31:31;;;;;;;26.85;4.00;;;23.30;99.90;;;21.60;87.98;99517.16;10366576;28;97241;-90
2023/06/10 14:36:35;;;;;;;205.82;13.32;;;23.10;99.90;;;21.58;92.27;99511.16;10386267;28;96694;-87
2023/06/10 14:41:38;;;;;;;17.58;2.70;;;23.20;99.90;;;21.63;93.71;99511.19;10374776;28;96617;-87
2023/06/10 14:46:41;;;;;;;66.47;6.18;;;23.20;99.90;;;21.63;94.53;99507.69;10378002;28;96609;-88
2023/06/10 14:51:45;;;;;;;11.25;2.42;;;23.20;99.90;;;21.59;94.90;99498.44;10347885;28;96646;-88
2023/06/10 14:56:48;;;;;;;82.03;7.45;;;23.20;99.90;;;21.59;95.07;99507.41;10338981;28;97081;-88
2023/06/10 15:01:51;;;;;;;9.48;3.25;;;23.10;99.90;;;21.55;96.08;99508.16;10374152;28;97498;-88
2023/06/10 15:06:54;;;;;;;19.88;3.28;;;23.10;99.90;;;21.54;99.41;99510.06;10391164;28;97367;-87
2023/06/10 15:11:59;;;;;;;55.92;5.22;;;23.10;99.90;;;21.50;93.25;99525.16;10344696;28;98605;-87
2023/06/10 15:17:02;;;;;;;42.58;4.88;;;23.00;99.90;;;21.38;90.32;99524.50;10361074;28;96660;-88
2023/06/10 15:22:05;;;;;;;42.40;5.78;;;23.00;99.90;;;21.30;92.41;99530.34;10368644;28;98204;-87
2023/06/10 15:27:09;;;;;;;48.05;6.43;;;22.80;99.90;;;21.19;92.37;99525.88;10370597;28;96639;-89
2023/06/10 15:32:12;;;;;;;9.90;2.80;;;22.80;99.90;;;21.09;93.99;99526.56;10373037;28;96703;-89
2023/06/10 15:37:21;;;;;;;71.35;6.60;;;22.70;99.90;;;21.01;96.86;99517.03;10352806;28;96993;-88
2023/06/10 15:42:25;;;;;;;212.50;13.38;;;22.60;99.90;;;20.99;98.01;99530.00;10357595;27;97660;-88
2023/06/10 15:47:28;;;;;;;94.28;6.90;;;22.50;99.90;;;20.94;100.00;99524.53;10375969;28;96644;-89
2023/06/10 15:52:31;;;;;;;77.90;8.77;;;22.50;99.90;;;20.95;100.00;99526.16;10415466;28;96533;-88
2023/06/10 15:57:34;;;;;;;148.13;12.68;;;22.50;99.90;;;20.96;100.00;99540.47;10339628;28;96711;-88
2023/06/10 16:02:37;;;;;;;4.63;2.80;;;22.50;99.90;;;20.93;100.00;99536.41;10359541;28;96646;-88
2023/06/10 16:07:40;;;;;;;70.28;7.07;;;22.50;99.90;;;20.94;100.00;99543.44;10358297;28;96915;-87
2023/06/10 16:12:43;;;;;;;76.30;7.50;;;22.50;99.90;;;20.97;100.00;99556.41;10341047;28;96816;-89
2023/06/10 16:17:46;;;;;;;6.72;2.90;;;22.50;99.90;;;20.99;100.00;99556.16;10361711;28;96705;-88
2023/06/10 16:22:50;;;;;;;38.42;4.82;;;22.50;99.90;;;21.00;100.00;99550.53;10332281;28;97869;-89
2023/06/10 16:27:53;;;;;;;88.47;6.95;;;22.50;99.90;;;21.00;100.00;99545.13;10351772;28;97945;-89
2023/06/10 16:32:56;;;;;;;12.90;3.63;;;22.50;99.90;;;21.00;100.00;99553.22;10381095;28;96662;-88
2023/06/10 16:37:59;;;;;;;4.72;2.90;;;22.50;99.90;;;21.01;100.00;99554.84;10356907;28;97610;-89
2023/06/10 16:43:05;;;;;;;121.38;9.18;;;22.50;99.90;;;20.98;100.00;99565.34;10365224;28;96619;-89
2023/06/10 16:48:09;;;;;;;14.73;4.03;;;22.40;99.90;;;20.96;100.00;99557.50;10371976;28;96498;-88
2023/06/10 16:53:12;;;;;;;112.45;9.75;;;22.40;99.90;;;20.93;100.00;99566.09;10345001;28;96791;-89
2023/06/10 16:58:15;;;;;;;140.52;11.55;;;22.40;99.90;;;20.90;100.00;99560.38;10350532;28;98271;-91
2023/06/10 17:03:18;;;;;;;112.13;9.55;;;22.40;99.90;;;20.86;100.00;99551.94;10358269;28;96608;-91
2023/06/10 17:08:21;;;;;;;4.80;2.60;;;22.40;99.90;;;20.84;100.00;99560.31;10349995;28;96733;-91
2023/06/10 17:13:24;;;;;;;3.60;3.20;;;22.30;99.90;;;20.80;100.00;99564.56;10373016;28;96556;-91
2023/06/10 17:18:27;;;;;;;9.23;4.00;;;22.30;99.90;;;20.78;100.00;99563.19;10398552;28;96625;-91
2023/06/10 17:23:30;;;;;;;8.90;5.00;;;22.30;99.90;;;20.76;100.00;99570.75;10342754;28;98108;-91
2023/06/10 17:28:33;;;;;;;7.93;3.50;;;22.30;99.90;;;20.71;100.00;99579.59;10397265;28;97920;-91
2023/06/10 17:33:36;;;;;;;5.22;3.80;;;22.20;99.90;;;20.70;100.00;99588.75;10361378;28;96775;-91
2023/06/10 17:38:39;;;;;;;6.30;3.30;;;22.20;99.90;;;20.69;100.00;99589.81;10356794;28;96688;-91
2023/06/10 17:43:44;;;;;;;5.55;3.33;;;22.20;99.90;;;20.65;100.00;99587.84;10371750;28;97543;-90
2023/06/10 17:48:47;;;;;;;4.15;2.63;;;22.10;99.90;;;20.60;100.00;99595.88;10370070;28;97347;-90
2023/06/10 17:53:51;;;;;;;5.82;3.50;;;22.00;99.90;;;20.52;100.00;99594.44;10351442;28;98566;-91
2023/06/10 17:58:53;;;;;;;3.53;2.90;;;22.00;99.90;;;20.46;100.00;99598.94;10364121;28;98229;-91
2023/06/10 18:03:57;;;;;;;4.35;3.35;;;21.90;99.90;;;20.40;100.00;99602.59;10348133;28;96554;-91
2023/06/10 18:09:03;;;;;;;3.92;3.25;;;21.80;99.90;;;20.33;100.00;99601.91;10368735;28;96692;-90
2023/06/10 18:14:06;;;;;;;4.10;3.28;;;21.80;99.90;;;20.31;100.00;99604.06;10360203;28;96549;-90
2023/06/10 18:19:09;;;;;;;9.57;5.60;;;21.70;99.90;;;20.25;100.00;99605.03;10365439;28;96406;-90
2023/06/10 18:24:12;;;;;;;6.80;4.95;;;21.60;99.90;;;20.19;100.00;99604.13;10345628;28;96744;-91
2023/06/10 18:29:15;;;;;;;7.75;4.03;;;21.60;99.90;;;20.15;100.00;99597.63;10366905;28;96902;-91
2023/06/10 18:34:18;;;;;;;9.25;5.40;;;21.60;99.90;;;20.13;100.00;99607.81;10363551;28;96609;-91
2023/06/10 18:39:21;;;;;;;13.30;6.40;;;21.60;99.90;;;20.04;100.00;99602.00;10371776;28;96665;-91
2023/06/10 18:44:24;;;;;;;10.05;7.43;;;21.50;99.90;;;20.01;100.00;99605.19;10362429;28;96719;-91
2023/06/10 18:49:27;;;;;;;9.30;6.53;;;21.40;99.90;;;19.99;100.00;99614.59;10382900;28;97935;-91
2023/06/10 18:54:30;;;;;;;9.35;5.68;;;21.40;99.90;;;19.87;100.00;99611.97;10339617;28;96777;-90
2023/06/10 18:59:33;;;;;;;10.85;6.25;;;21.30;99.90;;;19.86;100.00;99626.50;10319092;28;97201;-91
2023/06/10 19:04:36;;;;;;;7.95;5.43;;;21.20;99.90;;;19.75;100.00;99625.50;10332986;28;97426;-91
2023/06/10 19:09:39;;;;;;;7.80;5.13;;;21.10;99.90;;;19.67;100.00;99639.38;10352850;28;98086;-91
2023/06/10 19:14:42;;;;;;;14.18;4.80;;;21.10;99.90;;;19.61;100.00;99639.50;10317210;28;98538;-92
2023/06/10 19:19:45;;;;;;;7.47;4.50;;;21.00;99.90;;;19.58;100.00;99632.72;10348564;28;98513;-91
2023/06/10 19:25:07;;;;;;;11.18;5.30;;;21.00;99.90;;;19.56;100.00;99628.59;10323855;28;97607;-92
2023/06/10 19:30:11;;;;;;;9.18;5.07;;;21.00;99.90;;;19.50;100.00;99636.59;10331741;28;98106;-91
2023/06/10 19:35:14;;;;;;;9.40;5.55;;;20.90;99.90;;;19.47;100.00;99647.00;10327691;28;97009;-91
2023/06/10 19:40:17;;;;;;;22.77;6.68;;;20.90;99.90;;;19.37;100.00;99647.66;10337136;28;98379;-91
2023/06/10 19:45:21;;;;;;;23.98;6.57;;;20.80;99.90;;;19.35;100.00;99660.53;10330332;28;96654;-91
2023/06/10 19:50:24;;;;;;;6.00;4.20;;;20.80;99.90;;;19.29;100.00;99666.84;10346090;28;98431;-91
2023/06/10 19:55:27;;;;;;;11.07;5.38;;;20.70;99.90;;;19.18;100.00;99673.09;10355462;28;98538;-91
2023/06/10 20:00:30;;;;;;;21.13;4.72;;;20.60;99.90;;;19.14;100.00;99669.25;10351754;28;96801;-91
2023/06/10 20:05:33;;;;;;;27.63;5.65;;;20.50;99.90;;;19.11;100.00;99672.41;10388339;28;96785;-90
2023/06/10 20:10:36;;;;;;;114.10;14.60;;;20.50;99.90;;;19.09;100.00;99671.81;10333598;28;96701;-92
2023/06/10 20:15:39;;;;;;;9.15;6.22;;;20.50;99.90;;;19.11;100.00;99665.13;10399099;28;97043;-91
2023/06/10 20:20:42;;;;;;;62.67;9.32;;;20.60;99.90;;;19.12;100.00;99666.75;10374594;28;99174;-90
2023/06/10 20:25:45;;;;;;;7.30;5.55;;;20.60;99.90;;;19.11;100.00;99658.94;10353954;28;97378;-94
2023/06/10 20:30:49;;;;;;;7.82;5.53;;;20.60;99.90;;;19.10;100.00;99657.31;10373491;28;98608;-94
2023/06/10 20:35:52;;;;;;;25.63;6.97;;;20.50;99.90;;;19.10;100.00;99666.19;10342738;28;97237;-92
2023/06/10 20:40:55;;;;;;;147.10;14.40;;;20.60;99.90;;;19.12;100.00;99682.09;10348057;28;97589;-90
2023/06/10 20:45:58;;;;;;;125.35;12.38;;;20.50;99.90;;;19.08;100.00;99671.00;10358878;28;98654;-91
2023/06/10 20:51:01;;;;;;;5.72;5.18;;;20.50;99.90;;;19.04;100.00;99659.06;10340140;28;97523;-92